Viola, Illinois
Current Conditions -  °F | °C
As of 10:52 AM on Friday 28 Nov 2014 (Local Time) from KMLI Reporting Station
Broken Clouds Broken Clouds  
Wind Chill: 16°   Ceiling: 12000
Heat Index: 27°   Visibility: 10mi
Dew Point: 20°   Wind: 13mph
Humidity: 75%   Direction: 150°SSE
Pressure: 30.05"   Gusts: NA
Location:  41.2°N, 90.59°W
Report Text: KMLI 281652Z 15011KT 10SM BKN120 M03/M07 A3005 RMK AO2 SLP184 T10281067
Loading
Personal Weather Stations






























Interactive Weather Map New forecast layout! Learn more

10-Day Weather Forecast

Advertisements
Track Severe Weather on mobile